»·PEaware :: ASA2564 KSFO-KSNA

ASA2564 :: KSFO-KSNA

FLIGHT INFORMATION

Flight Status: Arrived
Operator:
Alaska Airlines
More flights by this operator :: More flights under this callsign
Pilot: Diego S. (22420)
Aircraft: AIRBUS A319
(A319)
More flights by this aircraft type
Origin: KSFO San Francisco Intl
United States
Destination: KSNA John Wayne-Orange Co
United States
More flights between these airports :: More routes between these airports
Route: +SAHEY3 CISKO RDHOT OHSEA2
File this flight plan on PilotEdge
Remarks: RMK / SIMBRIEF
Altitude:
(Current/Filed)
37,000ft
Speed:
(Current/Filed)
453kts
Departed: 10-Mar-19 09:00 AM
Arrived: 10-Mar-19 10:09 AM
Distance/Time
Traveled:
323nm/1:09
Distance/Time
To Go:
Arrived

Flight Plot

Page will automatically refresh every two minutes.

Flight plan parsing failed; only flown route is shown


Map Options




Map Legend


Flown Route
Filed Route
Departure Airport
Arrival Airport
Navaid (VOR, NDB)
Fix

Horizontal Profiles

Position Reports

Time Latitude Longitude Heading Altitude Ground
Speed
10-Mar-19 08:28 37.617855 -122.380649 257 22ft 0kts
10-Mar-19 08:29 37.617855 -122.380649 257 22ft 0kts
10-Mar-19 08:30 37.617855 -122.380649 257 22ft 0kts
10-Mar-19 08:31 37.617855 -122.380649 257 22ft 0kts
10-Mar-19 08:32 37.617855 -122.380649 257 22ft 0kts
10-Mar-19 08:33 37.617855 -122.380649 257 22ft 0kts
10-Mar-19 08:34 37.617855 -122.380649 257 22ft 0kts
10-Mar-19 08:35 37.617855 -122.380649 257 22ft 0kts
10-Mar-19 08:36 37.617855 -122.380649 257 22ft 0kts
10-Mar-19 08:37 37.617855 -122.380649 257 22ft 0kts
10-Mar-19 08:38 37.617855 -122.380649 257 22ft 0kts
10-Mar-19 08:39 37.617855 -122.380649 257 22ft 0kts
10-Mar-19 08:40 37.617855 -122.380649 257 22ft 0kts
10-Mar-19 08:41 37.617855 -122.380649 257 22ft 0kts
10-Mar-19 08:42 37.617855 -122.380649 257 22ft 0kts
10-Mar-19 08:43 37.617855 -122.380649 257 22ft 0kts
10-Mar-19 08:44 37.617855 -122.380649 257 22ft 0kts
10-Mar-19 08:45 37.617855 -122.380649 257 22ft 0kts
10-Mar-19 08:46 37.617855 -122.380649 257 22ft 0kts
10-Mar-19 08:47 37.617855 -122.380649 257 22ft 0kts
10-Mar-19 08:48 37.617856 -122.380647 257 22ft 0kts
10-Mar-19 08:49 37.617986 -122.379924 258 22ft 2kts
10-Mar-19 08:50 37.617710 -122.379473 349 22ft 1kts
10-Mar-19 08:51 37.617698 -122.379470 348 22ft 0kts
10-Mar-19 08:52 37.617698 -122.379470 348 22ft 0kts
10-Mar-19 08:53 37.618140 -122.379625 340 22ft 6kts
10-Mar-19 08:54 37.619876 -122.382510 298 22ft 14kts
10-Mar-19 08:55 37.621961 -122.387506 298 22ft 15kts
10-Mar-19 08:56 37.624353 -122.391435 298 22ft 16kts
10-Mar-19 08:57 37.626020 -122.392769 68 22ft 8kts
10-Mar-19 08:58 37.625990 -122.392332 117 22ft 0kts
10-Mar-19 08:59 37.625382 -122.390887 117 22ft 49kts
10-Mar-19 09:00 37.608139 -122.349318 121 1228ft 155kts
10-Mar-19 09:01 37.586613 -122.294045 115 3127ft 212kts
10-Mar-19 09:02 37.550138 -122.223828 138 5889ft 262kts
10-Mar-19 09:03 37.495980 -122.162013 138 9129ft 278kts
10-Mar-19 09:04 37.433257 -122.095034 141 11206ft 330kts
10-Mar-19 09:05 37.355957 -122.014346 142 13307ft 376kts
10-Mar-19 09:06 37.269774 -121.937145 146 16251ft 382kts
10-Mar-19 09:07 37.182351 -121.860125 146 18925ft 393kts
10-Mar-19 09:08 37.088445 -121.777266 147 21857ft 432kts
10-Mar-19 09:09 36.986981 -121.688002 148 24647ft 454kts
10-Mar-19 09:10 36.883400 -121.597188 148 27121ft 462kts
10-Mar-19 09:11 36.778985 -121.506233 149 29823ft 455kts
10-Mar-19 09:12 36.675155 -121.415914 149 31903ft 452kts
10-Mar-19 09:13 36.572245 -121.326499 149 33506ft 452kts
10-Mar-19 09:15 36.469531 -121.237303 149 34843ft 450kts
10-Mar-19 09:16 36.367703 -121.148459 146 35880ft 451kts
10-Mar-19 09:17 36.271741 -121.048581 144 36662ft 451kts
10-Mar-19 09:18 36.175109 -120.949263 145 37032ft 456kts
10-Mar-19 09:19 36.076724 -120.848846 145 37032ft 450kts
10-Mar-19 09:20 35.980062 -120.750562 146 37038ft 449kts
10-Mar-19 09:21 35.883236 -120.652609 146 37035ft 448kts
10-Mar-19 09:22 35.786828 -120.555609 146 37045ft 448kts
10-Mar-19 09:23 35.690217 -120.458363 146 37046ft 448kts
10-Mar-19 09:24 35.593539 -120.361584 146 37046ft 448kts
10-Mar-19 09:25 35.497488 -120.264924 147 37046ft 447kts
10-Mar-19 09:26 35.400523 -120.167945 147 37050ft 447kts
10-Mar-19 09:27 35.303673 -120.071550 147 37051ft 447kts
10-Mar-19 09:28 35.206998 -119.975597 148 37049ft 445kts
10-Mar-19 09:29 35.111800 -119.881589 148 37048ft 444kts
10-Mar-19 09:30 35.025193 -119.787334 142 37048ft 450kts
10-Mar-19 09:31 34.935909 -119.679551 142 37048ft 450kts
10-Mar-19 09:32 34.848884 -119.575200 142 37046ft 449kts
10-Mar-19 09:32 34.774444 -119.486062 143 35603ft 454kts
10-Mar-19 09:34 34.670451 -119.361662 144 32207ft 449kts
10-Mar-19 09:35 34.582701 -119.256200 145 29366ft 441kts
10-Mar-19 09:36 34.498227 -119.154730 146 27975ft 403kts
10-Mar-19 09:36 34.431005 -119.076871 145 26323ft 398kts
10-Mar-19 09:37 34.351375 -118.985233 145 24441ft 389kts
10-Mar-19 09:39 34.261150 -118.882491 144 22365ft 374kts
10-Mar-19 09:40 34.175950 -118.824970 168 20561ft 342kts
10-Mar-19 09:40 34.101844 -118.795696 167 19166ft 333kts
10-Mar-19 09:41 34.014807 -118.761744 167 17615ft 323kts
10-Mar-19 09:42 33.930061 -118.729001 167 16085ft 318kts
10-Mar-19 09:43 33.848024 -118.697421 166 14579ft 314kts
10-Mar-19 09:44 33.765517 -118.665630 165 13145ft 311kts
10-Mar-19 09:45 33.686485 -118.637011 166 12081ft 289kts
10-Mar-19 09:46 33.610744 -118.610124 160 10906ft 281kts
10-Mar-19 09:47 33.561053 -118.540232 122 9769ft 280kts
10-Mar-19 09:48 33.522562 -118.460441 102 8607ft 275kts
10-Mar-19 09:49 33.519054 -118.369923 90 7441ft 270kts
10-Mar-19 09:50 33.533797 -118.282962 67 6181ft 266kts
10-Mar-19 09:51 33.560123 -118.200919 68 5059ft 264kts
10-Mar-19 09:52 33.597763 -118.123700 55 5051ft 269kts
10-Mar-19 09:53 33.639521 -118.048816 54 5054ft 269kts
10-Mar-19 09:54 33.681059 -117.974024 55 5052ft 269kts
10-Mar-19 09:55 33.738204 -117.919684 26 5051ft 264kts
10-Mar-19 09:56 33.797825 -117.882000 26 5050ft 235kts
10-Mar-19 09:57 33.855525 -117.844989 26 5049ft 235kts
10-Mar-19 09:58 33.913230 -117.807793 26 5049ft 235kts
10-Mar-19 09:59 33.951955 -117.752087 103 4680ft 241kts
10-Mar-19 10:00 33.915280 -117.693294 170 3447ft 224kts
10-Mar-19 10:01 33.861603 -117.706704 226 2639ft 188kts
10-Mar-19 10:02 33.834519 -117.746585 229 2567ft 142kts
10-Mar-19 10:03 33.806672 -117.780430 220 2586ft 142kts
10-Mar-19 10:04 33.773711 -117.806505 209 2335ft 143kts
10-Mar-19 10:05 33.739150 -117.828659 207 1523ft 140kts
10-Mar-19 10:06 33.704962 -117.850273 207 627ft 138kts
10-Mar-19 10:07 33.672363 -117.870934 209 65ft 95kts
10-Mar-19 10:08 33.667681 -117.873079 144 65ft 0kts
10-Mar-19 10:09 33.667888 -117.872183 39 65ft 10kts
10-Mar-19 10:10 33.670806 -117.869178 40 65ft 16kts
10-Mar-19 10:11 33.674683 -117.866110 27 65ft 18kts
10-Mar-19 10:12 33.679396 -117.863116 28 65ft 18kts
10-Mar-19 10:13 33.681464 -117.860949 117 65ft 0kts
10-Mar-19 10:14 33.681464 -117.860949 117 65ft 0kts

Navigation Log

Ident Type
Flight plan parsing failed, navigation log unavailable